ADDS METAR Data INFO
IDs: Format: Raw Decoded Include TAF

Data at: 0901 UTC 20 Oct 2017

KEQY 200853Z AUTO 00000KT 8SM CLR 07/07 A3023 RMK AO2 SLP243 T00670067 55003
KEQY 200753Z AUTO 23003KT 10SM CLR 07/07 A3022 RMK AO2 SLP241 T00720067
KEQY 200653Z AUTO 00000KT 10SM CLR 08/07 A3023 RMK AO2 SLP244 T00780072
KEQY 200553Z AUTO 24004KT 10SM CLR 07/07 A3023 RMK AO2 SLP247 T00720067 10139 20072 56004
KEQY 200453Z AUTO 00000KT 8SM CLR 08/07 A3023 RMK AO2 SLP247 T00830072 402390044
KEQY 200353Z AUTO 00000KT 10SM CLR 09/07 A3024 RMK AO2 SLP250 T00890067
KEQY 200253Z AUTO 00000KT 10SM CLR 10/07 A3025 RMK AO2 SLP252 T01000072 53005
KEQY 200153Z AUTO 00000KT 10SM CLR 11/07 A3024 RMK AO2 SLP252 T01060072
KEQY 200053Z AUTO 00000KT 10SM CLR 12/07 A3023 RMK AO2 SLP248 T01170072
KEQY 192353Z AUTO 00000KT 10SM CLR 14/08 A3023 RMK AO2 SLP249 T01390083 10239 20133 53004
KEQY 192253Z AUTO 00000KT 10SM CLR 17/06 A3022 RMK AO2 SLP244 T01720056
KEQY 192153Z AUTO 25003KT 10SM CLR 21/06 A3021 RMK AO2 SLP240 T02110061
KEQY 192053Z AUTO 00000KT 10SM CLR 23/02 A3022 RMK AO2 SLP241 T02330017 56014
KEQY 191953Z AUTO 00000KT 10SM CLR 23/03 A3023 RMK AO2 SLP245 T02330033
KEQY 191853Z AUTO 27003KT 10SM CLR 23/03 A3024 RMK AO2 SLP248 T02280033
KEQY 191753Z AUTO 00000KT 10SM CLR 22/03 A3026 RMK AO2 SLP255 T02170033 10217 20050 58024
KEQY 191653Z AUTO VRB03KT 10SM CLR 20/04 A3030 RMK AO2 SLP269 T02000039
KEQY 191553Z AUTO 03004KT 10SM CLR 19/06 A3032 RMK AO2 SLP276 T01890061
KEQY 191453Z AUTO VRB04KT 10SM CLR 17/08 A3033 RMK AO2 SLP282 T01670078 51012
KEQY 191353Z AUTO 01006KT 10SM CLR 14/08 A3033 RMK AO2 SLP283 T01390078
KEQY 191253Z AUTO 00000KT 10SM CLR 09/07 A3031 RMK AO2 SLP276 T00940067
KEQY 191153Z AUTO 00000KT 10SM CLR 06/04 A3030 RMK AO2 SLP274 T00560039 10072 20044 52005
KEQY 191053Z AUTO 00000KT 10SM CLR 04/04 A3029 RMK AO2 SLP271 T00440039
KEQY 190953Z AUTO 00000KT 10SM CLR 05/04 A3029 RMK AO2 SLP267 T00500039
KEQY 190853Z AUTO 00000KT 10SM CLR 06/04 A3028 RMK AO2 SLP265 T00560039 58004
KEQY 190753Z AUTO 00000KT 10SM CLR 06/04 A3028 RMK AO2 SLP265 T00560039
KEQY 190653Z AUTO 00000KT 10SM CLR 07/04 A3030 RMK AO2 SLP269 T00670044
KEQY 190553Z AUTO 00000KT 10SM CLR 07/04 A3029 RMK AO2 SLP268 T00670044 10128 20067 58007
KEQY 190453Z AUTO 00000KT 10SM CLR 07/04 A3031 RMK AO2 SLP273 T00720044 402110044
KEQY 190353Z AUTO 00000KT 10SM CLR 08/04 A3031 RMK AO2 SLP276 T00780044
KEQY 190253Z AUTO 00000KT 10SM CLR 07/05 A3032 RMK AO2 SLP278 T00720050 50002
KEQY 190153Z AUTO 00000KT 10SM CLR 09/04 A3032 RMK AO2 SLP281 T00940044
KEQY 190053Z AUTO 00000KT 10SM CLR 10/06 A3032 RMK AO2 SLP280 T01000056
KEQY 182353Z AUTO 00000KT 10SM CLR 12/03 A3031 RMK AO2 SLP277 T01220033 10211 20122 53005
KEQY 182253Z AUTO 08004KT 10SM CLR 15/03 A3030 RMK AO2 SLP273 T01500028
KEQY 182153Z AUTO 05004KT 10SM CLR 19/02 A3029 RMK AO2 SLP267 T01940022